Time;durP1;ratioP1;P1;durP2;ratioP2;P2;SDS_P1;SDS_P2;PMS_P1;PMS_P2;Temp;Humidity;BMP_temperature;BMP_pressure;BME280_temperature;BME280_humidity;BME280_pressure;Samples;Min_cycle;Max_cycle;Signal;HPM_P1;HPM_P2
2021/05/03 00:00:00;;;;;;;40.28;36.17;;;23.70;45.70;;;;;;5033195;28;20039;-54
2021/05/03 00:02:26;;;;;;;43.53;39.05;;;23.70;45.70;;;;;;5033469;28;20040;-55
2021/05/03 00:04:53;;;;;;;45.50;40.78;;;23.70;45.60;;;;;;5032858;28;20128;-54
2021/05/03 00:07:19;;;;;;;50.70;45.58;;;23.70;45.70;;;;;;5032879;28;20033;-54
2021/05/03 00:09:45;;;;;;;53.97;48.72;;;23.70;45.60;;;;;;5032662;28;20062;-55
2021/05/03 00:12:12;;;;;;;55.33;49.67;;;23.70;45.70;;;;;;5031595;28;20029;-54
2021/05/03 00:14:38;;;;;;;49.30;44.40;;;23.70;45.60;;;;;;5032835;28;20384;-55
2021/05/03 00:17:04;;;;;;;48.13;43.42;;;23.70;45.60;;;;;;5032379;28;20032;-55
2021/05/03 00:19:30;;;;;;;46.88;42.28;;;23.70;45.60;;;;;;5032545;28;20036;-55
2021/05/03 00:21:56;;;;;;;43.50;39.20;;;23.70;45.60;;;;;;5032551;28;20498;-55
2021/05/03 00:24:22;;;;;;;41.22;37.22;;;23.70;45.60;;;;;;5032400;28;20052;-55
2021/05/03 00:26:48;;;;;;;36.90;33.20;;;23.70;45.50;;;;;;5032377;28;20464;-55
2021/05/03 00:29:14;;;;;;;36.90;33.10;;;23.70;45.50;;;;;;5032295;28;20049;-55
2021/05/03 00:31:40;;;;;;;32.75;29.42;;;23.60;45.50;;;;;;5032372;28;20033;-55
2021/05/03 00:34:06;;;;;;;32.78;29.40;;;23.60;45.50;;;;;;5032295;28;20021;-55
2021/05/03 00:36:32;;;;;;;28.45;25.58;;;23.60;45.50;;;;;;5032249;28;20032;-55
2021/05/03 00:38:58;;;;;;;27.92;25.33;;;23.60;45.40;;;;;;5032203;28;20026;-55
2021/05/03 00:41:24;;;;;;;29.33;26.42;;;23.60;45.30;;;;;;5031909;28;20105;-55
2021/05/03 00:43:51;;;;;;;29.02;26.08;;;23.60;45.30;;;;;;5032091;28;20083;-55
2021/05/03 00:46:19;;;;;;;27.48;24.77;;;23.60;45.30;;;;;;5032013;28;20052;-55
2021/05/03 00:48:47;;;;;;;26.88;24.08;;;23.60;45.30;;;;;;5030921;28;20044;-55
2021/05/03 00:51:13;;;;;;;24.77;22.38;;;23.60;45.20;;;;;;5031743;28;20025;-55
2021/05/03 00:53:39;;;;;;;22.55;20.33;;;23.60;45.20;;;;;;5031901;28;20045;-55
2021/05/03 00:56:06;;;;;;;21.35;19.33;;;23.60;45.20;;;;;;5031604;28;20013;-55
2021/05/03 00:58:32;;;;;;;22.08;19.92;;;23.60;45.10;;;;;;5032031;28;20499;-55
2021/05/03 01:00:58;;;;;;;22.05;19.95;;;23.60;45.10;;;;;;5031892;28;20072;-55
2021/05/03 01:03:25;;;;;;;21.63;19.35;;;23.60;45.10;;;;;;5031760;28;20029;-55
2021/05/03 01:05:52;;;;;;;20.95;18.70;;;23.60;45.10;;;;;;5031708;28;20041;-55
2021/05/03 01:08:18;;;;;;;19.63;17.30;;;23.50;45.00;;;;;;5031605;28;20125;-55
2021/05/03 01:10:44;;;;;;;18.80;16.80;;;23.50;45.00;;;;;;5031435;28;20100;-56
2021/05/03 01:13:10;;;;;;;17.58;15.65;;;23.60;45.00;;;;;;5031623;28;20112;-55
2021/05/03 01:15:36;;;;;;;15.65;14.18;;;23.50;44.90;;;;;;5030485;28;20483;-55
2021/05/03 01:18:04;;;;;;;15.07;13.10;;;23.50;44.90;;;;;;5030349;28;20048;-55
2021/05/03 01:20:36;;;;;;;14.63;13.13;;;23.50;44.90;;;;;;5031725;28;20041;-55
2021/05/03 01:23:03;;;;;;;13.75;12.35;;;23.50;44.80;;;;;;5031780;28;20038;-55
2021/05/03 01:25:33;;;;;;;12.85;11.55;;;23.50;44.80;;;;;;5031668;28;20059;-55
2021/05/03 01:28:02;;;;;;;14.02;11.30;;;23.50;44.80;;;;;;5031535;28;20064;-55
2021/05/03 01:30:33;;;;;;;12.65;11.27;;;23.50;44.70;;;;;;5030073;28;20049;-55
2021/05/03 01:33:02;;;;;;;12.15;10.63;;;23.50;44.70;;;;;;5031462;28;20048;-55
2021/05/03 01:35:28;;;;;;;11.32;9.65;;;23.50;44.70;;;;;;5031357;28;20438;-55
2021/05/03 01:37:58;;;;;;;11.00;9.30;;;23.50;44.70;;;;;;5030815;28;20022;-55
2021/05/03 01:40:26;;;;;;;10.93;9.30;;;23.50;44.70;;;;;;5031135;28;20111;-54
2021/05/03 01:42:53;;;;;;;11.15;10.02;;;23.50;44.70;;;;;;5031324;28;20037;-55
2021/05/03 01:45:22;;;;;;;9.75;8.77;;;23.50;44.70;;;;;;5031271;28;20515;-55
2021/05/03 01:47:50;;;;;;;11.95;9.10;;;23.50;44.70;;;;;;5031350;28;20368;-55
2021/05/03 01:50:19;;;;;;;10.25;8.52;;;23.50;44.60;;;;;;5031074;28;20030;-55
2021/05/03 01:52:46;;;;;;;9.10;8.18;;;23.50;44.60;;;;;;5031023;28;20366;-55
2021/05/03 01:55:13;;;;;;;9.38;8.38;;;23.50;44.60;;;;;;5030957;28;20083;-54
2021/05/03 01:57:39;;;;;;;10.30;8.93;;;23.40;44.40;;;;;;5031372;28;20413;-55
2021/05/03 02:00:07;;;;;;;7.90;7.10;;;23.40;44.40;;;;;;5031112;28;20120;-55
2021/05/03 02:02:34;;;;;;;8.80;7.90;;;23.40;44.40;;;;;;5029723;28;20040;-55
2021/05/03 02:05:00;;;;;;;7.88;7.03;;;23.40;44.40;;;;;;5031286;28;20057;-54
2021/05/03 02:07:26;;;;;;;7.50;6.70;;;23.40;44.40;;;;;;5033712;28;20060;-54
2021/05/03 02:09:52;;;;;;;9.02;7.43;;;23.40;44.30;;;;;;5034932;28;20037;-55
2021/05/03 02:12:18;;;;;;;11.40;7.65;;;23.40;44.30;;;;;;5035140;28;20372;-55
2021/05/03 02:14:44;;;;;;;8.15;7.00;;;23.40;44.30;;;;;;5035158;28;20045;-54
2021/05/03 02:17:12;;;;;;;8.82;6.63;;;23.40;44.30;;;;;;5034850;28;20053;-54
2021/05/03 02:19:38;;;;;;;9.32;7.13;;;23.40;44.20;;;;;;5035055;28;20086;-54
2021/05/03 02:22:04;;;;;;;9.20;6.45;;;23.40;44.20;;;;;;5035126;28;20120;-54
2021/05/03 02:24:31;;;;;;;8.45;5.85;;;23.40;44.20;;;;;;5034891;28;20037;-54
2021/05/03 02:26:57;;;;;;;7.22;6.32;;;23.40;44.20;;;;;;5034889;28;20040;-54
2021/05/03 02:29:23;;;;;;;7.53;6.15;;;23.40;44.20;;;;;;5034452;28;20045;-54
2021/05/03 02:31:49;;;;;;;6.68;5.70;;;23.40;44.20;;;;;;5034560;28;20388;-54
2021/05/03 02:34:15;;;;;;;8.88;6.13;;;23.40;44.10;;;;;;5034620;28;20052;-54
2021/05/03 02:36:42;;;;;;;5.90;5.32;;;23.40;44.10;;;;;;5034562;28;20071;-55
2021/05/03 02:39:08;;;;;;;7.13;5.40;;;23.40;44.10;;;;;;5035110;28;20419;-54
2021/05/03 02:41:34;;;;;;;7.18;5.47;;;23.40;44.20;;;;;;5034622;28;20443;-54
2021/05/03 02:44:01;;;;;;;8.95;5.55;;;23.40;44.10;;;;;;5034559;28;20103;-55
2021/05/03 02:46:28;;;;;;;5.93;5.28;;;23.40;44.10;;;;;;5034585;28;20403;-54
2021/05/03 02:48:55;;;;;;;5.68;5.13;;;23.40;44.10;;;;;;5034646;28;20048;-54
2021/05/03 02:51:21;;;;;;;6.38;4.85;;;23.40;44.10;;;;;;5033359;28;20051;-54
2021/05/03 02:53:47;;;;;;;6.80;5.32;;;23.40;44.10;;;;;;5034416;28;20021;-54
2021/05/03 02:56:13;;;;;;;7.78;5.30;;;23.40;44.00;;;;;;5032796;28;20116;-55
2021/05/03 02:58:39;;;;;;;7.00;4.72;;;23.30;43.90;;;;;;5033938;28;20056;-54
2021/05/03 03:01:05;;;;;;;5.85;4.50;;;23.40;44.00;;;;;;5034424;28;20587;-55
2021/05/03 03:03:31;;;;;;;7.53;4.53;;;23.40;44.00;;;;;;5034325;28;20108;-55
2021/05/03 03:05:57;;;;;;;6.60;4.78;;;23.40;44.60;;;;;;5034327;28;20116;-54
2021/05/03 03:08:23;;;;;;;7.30;4.78;;;23.40;43.90;;;;;;5034150;28;20026;-55
2021/05/03 03:10:49;;;;;;;10.23;4.53;;;23.30;43.90;;;;;;5033897;28;20054;-55
2021/05/03 03:13:15;;;;;;;6.18;4.35;;;23.40;44.00;;;;;;5033935;28;20029;-55
2021/05/03 03:15:41;;;;;;;5.03;4.43;;;23.40;43.90;;;;;;5033999;28;20463;-54
2021/05/03 03:18:07;;;;;;;5.05;3.90;;;23.40;43.90;;;;;;5033557;28;20084;-55
2021/05/03 03:20:33;;;;;;;4.50;4.10;;;23.30;43.80;;;;;;5032850;28;20037;-55
2021/05/03 03:23:00;;;;;;;7.07;4.32;;;23.40;43.90;;;;;;5033831;28;20043;-54
2021/05/03 03:25:26;;;;;;;7.10;4.72;;;23.30;43.80;;;;;;5033934;28;20068;-55
2021/05/03 03:27:53;;;;;;;5.05;3.67;;;23.30;43.80;;;;;;5033755;28;20824;-54
2021/05/03 03:30:19;;;;;;;6.75;4.28;;;23.40;43.80;;;;;;5033489;28;20049;-54
2021/05/03 03:32:45;;;;;;;7.90;4.22;;;23.30;43.70;;;;;;5033906;28;20025;-55
2021/05/03 03:35:17;;;;;;;6.57;3.55;;;23.30;43.70;;;;;;5033788;28;20037;-54
2021/05/03 03:37:45;;;;;;;7.15;4.18;;;23.30;43.70;;;;;;5033182;28;20033;-55
2021/05/03 03:40:13;;;;;;;5.20;4.18;;;23.30;43.70;;;;;;5032984;28;20035;-55
2021/05/03 03:42:39;;;;;;;5.15;4.32;;;23.30;43.70;;;;;;5033579;28;20036;-55
2021/05/03 03:45:07;;;;;;;4.90;3.78;;;23.30;43.60;;;;;;5033448;28;20029;-55
2021/05/03 03:47:33;;;;;;;5.05;3.85;;;23.30;43.70;;;;;;5033416;28;20085;-54
2021/05/03 03:49:59;;;;;;;5.28;4.10;;;23.30;43.60;;;;;;5033198;28;20083;-55
2021/05/03 03:52:25;;;;;;;5.85;4.18;;;23.30;43.60;;;;;;5032669;28;20017;-55
2021/05/03 03:54:52;;;;;;;4.35;3.63;;;23.30;43.60;;;;;;5033053;28;20037;-54
2021/05/03 03:57:19;;;;;;;6.18;3.70;;;23.30;43.60;;;;;;5031718;28;20493;-55
2021/05/03 03:59:48;;;;;;;4.07;3.47;;;23.30;43.50;;;;;;5032891;28;20037;-55
2021/05/03 04:02:14;;;;;;;4.00;3.60;;;23.30;43.50;;;;;;5033290;28;20112;-55
2021/05/03 04:04:44;;;;;;;4.03;3.22;;;23.30;43.50;;;;;;5032662;28;20535;-55
2021/05/03 04:27:52;;;;;;;2.85;2.53;;;23.30;43.30;;;;;;5032480;28;20103;-56
2021/05/03 04:30:19;;;;;;;6.53;3.40;;;23.30;43.30;;;;;;5030857;28;20054;-56
2021/05/03 04:32:45;;;;;;;5.60;3.50;;;23.30;43.30;;;;;;5032323;28;20025;-56
2021/05/03 04:35:11;;;;;;;3.63;3.03;;;23.30;43.30;;;;;;5032571;28;20030;-56
2021/05/03 04:37:37;;;;;;;4.10;2.85;;;23.30;43.30;;;;;;5032679;28;20033;-56
2021/05/03 04:40:04;;;;;;;2.60;2.40;;;23.30;43.30;;;;;;5031895;28;20375;-56
2021/05/03 04:42:30;;;;;;;4.07;3.08;;;23.30;43.30;;;;;;5032217;28;20025;-56
2021/05/03 04:44:56;;;;;;;4.45;2.60;;;23.30;43.30;;;;;;5032061;28;20033;-56
2021/05/03 04:47:22;;;;;;;4.25;3.03;;;23.30;43.20;;;;;;5031670;28;20419;-56
2021/05/03 04:49:48;;;;;;;5.03;2.80;;;23.30;43.20;;;;;;5031926;28;20041;-56
2021/05/03 04:52:14;;;;;;;4.55;2.58;;;23.30;43.20;;;;;;5031633;28;20073;-56
2021/05/03 04:54:40;;;;;;;5.03;2.65;;;23.30;43.10;;;;;;5032126;28;20537;-53
2021/05/03 04:57:06;;;;;;;4.40;2.50;;;23.30;43.10;;;;;;5031609;28;20075;-55
2021/05/03 04:59:33;;;;;;;3.40;2.20;;;23.30;43.10;;;;;;5031870;28;20090;-55
2021/05/03 05:01:59;;;;;;;4.95;2.80;;;23.30;43.10;;;;;;5031923;28;20119;-55
2021/05/03 05:04:25;;;;;;;3.53;2.40;;;23.20;43.00;;;;;;5031714;28;20021;-56
2021/05/03 05:06:52;;;;;;;3.30;2.50;;;23.20;42.90;;;;;;5031532;28;20030;-55
2021/05/03 05:09:18;;;;;;;3.22;2.28;;;23.20;42.90;;;;;;5031332;28;20025;-55
2021/05/03 05:11:44;;;;;;;4.28;2.70;;;23.20;42.90;;;;;;5030282;28;20035;-55
2021/05/03 05:14:10;;;;;;;3.72;2.25;;;23.30;42.90;;;;;;5030493;28;20108;-56
2021/05/03 05:16:36;;;;;;;5.05;2.47;;;23.20;42.80;;;;;;5031017;28;20163;-56
2021/05/03 05:19:03;;;;;;;5.68;2.60;;;23.20;42.80;;;;;;5031756;28;20033;-56
2021/05/03 05:21:29;;;;;;;3.63;2.35;;;23.20;42.70;;;;;;5031673;28;20091;-55
2021/05/03 05:23:55;;;;;;;3.33;2.38;;;23.20;42.80;;;;;;5031544;28;20205;-55
2021/05/03 05:26:21;;;;;;;3.97;2.33;;;23.20;42.80;;;;;;5031503;28;20029;-55
2021/05/03 05:28:47;;;;;;;4.35;2.25;;;23.20;42.80;;;;;;5031520;28;20056;-56
2021/05/03 05:31:15;;;;;;;5.47;3.42;;;23.20;42.70;;;;;;5031635;28;20030;-55
2021/05/03 05:33:41;;;;;;;4.40;2.00;;;23.20;42.70;;;;;;5031596;28;20029;-56
2021/05/03 05:36:07;;;;;;;5.40;2.47;;;23.20;42.70;;;;;;5029790;28;20095;-56
2021/05/03 05:38:33;;;;;;;3.60;2.25;;;23.20;42.70;;;;;;5031213;28;20040;-56
2021/05/03 05:40:59;;;;;;;3.20;2.72;;;23.20;42.70;;;;;;5031037;28;20033;-56
2021/05/03 05:43:25;;;;;;;4.65;2.30;;;23.20;42.70;;;;;;5031483;28;20029;-55
2021/05/03 05:45:51;;;;;;;3.42;2.22;;;23.20;42.70;;;;;;5031300;28;20118;-55
2021/05/03 05:48:17;;;;;;;5.28;2.50;;;23.20;42.70;;;;;;5031622;28;20040;-55
2021/05/03 05:50:43;;;;;;;4.07;2.88;;;23.20;42.80;;;;;;5031504;28;20083;-55
2021/05/03 05:53:09;;;;;;;5.28;2.60;;;23.20;42.80;;;;;;5031632;28;20128;-55
2021/05/03 05:55:35;;;;;;;6.22;2.88;;;23.20;42.80;;;;;;5031499;28;20053;-55
2021/05/03 05:58:01;;;;;;;5.65;2.85;;;23.20;42.80;;;;;;5031262;28;20022;-55
2021/05/03 06:00:27;;;;;;;2.75;2.10;;;23.20;42.80;;;;;;5031346;28;20061;-55
2021/05/03 06:02:53;;;;;;;5.20;2.60;;;23.20;42.70;;;;;;5018459;28;20065;-56
2021/05/03 06:05:20;;;;;;;5.90;2.40;;;23.20;42.70;;;;;;5012795;28;20104;-56
2021/05/03 06:07:46;;;;;;;4.95;2.50;;;23.20;42.70;;;;;;5028703;28;20310;-56
2021/05/03 06:10:12;;;;;;;5.80;2.95;;;23.20;42.70;;;;;;5029291;28;20022;-56
2021/05/03 06:12:38;;;;;;;4.50;2.75;;;23.20;42.70;;;;;;5029754;28;20021;-54
2021/05/03 06:15:05;;;;;;;2.88;2.42;;;23.20;42.80;;;;;;5030012;28;20037;-54
2021/05/03 06:17:31;;;;;;;5.43;2.58;;;23.20;42.80;;;;;;5030809;28;20170;-54
2021/05/03 06:19:57;;;;;;;4.30;2.85;;;23.20;42.80;;;;;;5029719;28;20168;-54
2021/05/03 06:22:22;;;;;;;4.65;2.85;;;23.20;42.80;;;;;;5031283;28;20037;-54
2021/05/03 06:24:49;;;;;;;8.07;2.70;;;23.20;42.80;;;;;;5030566;28;20429;-54
2021/05/03 06:27:15;;;;;;;6.60;2.88;;;23.20;42.80;;;;;;5029604;28;20040;-54
2021/05/03 06:29:41;;;;;;;3.90;2.63;;;23.20;42.80;;;;;;5030479;28;20042;-54
2021/05/03 06:32:07;;;;;;;3.42;2.85;;;23.30;42.80;;;;;;5030116;28;20033;-56
2021/05/03 06:34:33;;;;;;;10.70;3.25;;;23.30;42.80;;;;;;5030308;28;20036;-55
2021/05/03 06:37:00;;;;;;;7.38;3.05;;;23.30;42.80;;;;;;5030327;28;20375;-55
2021/05/03 06:39:26;;;;;;;4.78;2.92;;;23.30;42.80;;;;;;5030672;28;20439;-56
2021/05/03 06:41:53;;;;;;;9.95;3.05;;;23.30;42.80;;;;;;5030532;28;20033;-55
2021/05/03 06:44:19;;;;;;;6.93;3.50;;;23.30;42.80;;;;;;5030149;28;20136;-55
2021/05/03 06:46:45;;;;;;;11.43;5.97;;;23.30;42.80;;;;;;5030635;28;20112;-55
2021/05/03 06:49:11;;;;;;;17.17;11.90;;;23.30;42.90;;;;;;5030652;28;20032;-55
2021/05/03 06:51:37;;;;;;;20.30;12.57;;;23.30;43.50;;;;;;5030345;28;20033;-55
2021/05/03 06:54:04;;;;;;;18.88;12.25;;;23.30;43.00;;;;;;5032620;28;20034;-55
2021/05/03 06:56:30;;;;;;;12.05;8.25;;;23.30;43.00;;;;;;5033827;28;20830;-58
2021/05/03 06:58:56;;;;;;;15.38;10.02;;;23.30;43.00;;;;;;5034506;28;20808;-56
2021/05/03 07:01:22;;;;;;;13.38;8.43;;;23.30;43.00;;;;;;5034250;28;20038;-58
2021/05/03 07:03:49;;;;;;;9.73;6.65;;;23.30;42.90;;;;;;5032394;28;20076;-58
2021/05/03 07:06:15;;;;;;;12.82;6.78;;;23.30;42.80;;;;;;5033535;28;20038;-58
2021/05/03 07:08:42;;;;;;;16.30;11.25;;;23.30;42.80;;;;;;5033511;28;20034;-58
2021/05/03 07:11:17;;;;;;;18.33;12.48;;;23.30;42.80;;;;;;5033502;28;20033;-58
2021/05/03 07:13:43;;;;;;;12.90;10.63;;;23.30;42.70;;;;;;5032285;28;20030;-58
2021/05/03 07:16:09;;;;;;;15.75;9.05;;;23.30;42.60;;;;;;5032381;28;20053;-59
2021/05/03 07:18:35;;;;;;;11.02;9.02;;;23.30;43.20;;;;;;5033288;28;20049;-58
2021/05/03 07:21:03;;;;;;;14.05;9.57;;;23.30;42.60;;;;;;5033119;28;20052;-59
2021/05/03 07:23:29;;;;;;;11.18;9.68;;;23.30;42.60;;;;;;5032052;28;20452;-58
2021/05/03 07:25:56;;;;;;;14.10;9.32;;;23.30;42.60;;;;;;5033224;28;20387;-58
2021/05/03 07:28:22;;;;;;;15.93;9.60;;;23.30;42.50;;;;;;5033155;28;20021;-58
2021/05/03 07:30:48;;;;;;;14.52;8.60;;;23.30;42.60;;;;;;5032851;28;20076;-59
2021/05/03 07:33:14;;;;;;;9.50;6.30;;;23.30;42.50;;;;;;5033162;28;20033;-58
2021/05/03 07:35:40;;;;;;;9.98;5.88;;;23.30;42.60;;;;;;5033059;28;20064;-58
2021/05/03 07:38:06;;;;;;;10.32;5.97;;;23.30;42.50;;;;;;5031579;28;20061;-58
2021/05/03 07:40:32;;;;;;;7.07;4.82;;;23.30;42.60;;;;;;5032932;28;20493;-59
2021/05/03 07:42:58;;;;;;;13.02;4.72;;;23.30;42.50;;;;;;5032862;28;20108;-59
2021/05/03 07:45:24;;;;;;;10.90;4.85;;;23.30;42.50;;;;;;5031785;28;20087;-59
2021/05/03 07:47:50;;;;;;;9.27;4.75;;;23.30;42.60;;;;;;5032874;28;20049;-59
2021/05/03 07:50:16;;;;;;;5.97;4.00;;;23.30;42.70;;;;;;5032916;28;20025;-59
2021/05/03 07:52:42;;;;;;;8.45;4.10;;;23.30;42.70;;;;;;5031308;28;20029;-58
2021/05/03 07:55:12;;;;;;;8.57;4.47;;;23.30;42.60;;;;;;5031441;28;20472;-59
2021/05/03 07:57:39;;;;;;;8.18;4.15;;;23.30;42.60;;;;;;5032528;28;20021;-59
2021/05/03 08:00:06;;;;;;;7.88;3.97;;;23.30;42.70;;;;;;5032873;28;20029;-59
2021/05/03 08:02:32;;;;;;;6.85;4.22;;;23.30;42.60;;;;;;5032504;28;20175;-58
2021/05/03 08:04:58;;;;;;;10.13;4.20;;;23.30;42.60;;;;;;5032713;28;20036;-58
2021/05/03 08:07:24;;;;;;;9.07;4.72;;;23.40;42.70;;;;;;5032527;28;20030;-57
2021/05/03 08:09:50;;;;;;;12.18;4.30;;;23.30;42.60;;;;;;5032546;28;20034;-57
2021/05/03 08:12:16;;;;;;;8.20;4.57;;;23.30;42.60;;;;;;5032727;28;20108;-56
2021/05/03 08:14:43;;;;;;;9.73;3.95;;;23.30;42.60;;;;;;5033347;28;20496;-56
2021/05/03 08:17:12;;;;;;;9.10;4.22;;;23.30;42.60;;;;;;5033002;28;20159;-56
2021/05/03 08:19:39;;;;;;;8.88;5.25;;;23.30;42.60;;;;;;5033069;28;20419;-56
2021/05/03 08:22:05;;;;;;;8.70;4.53;;;23.30;42.70;;;;;;5032708;28;20125;-55
2021/05/03 08:24:33;;;;;;;12.45;4.90;;;23.40;42.70;;;;;;5032929;28;20033;-57
2021/05/03 08:27:02;;;;;;;4.90;3.67;;;23.30;42.70;;;;;;5032814;28;20059;-56
2021/05/03 08:29:28;;;;;;;10.93;4.93;;;23.30;42.70;;;;;;5032226;28;20411;-56
2021/05/03 08:31:56;;;;;;;13.30;4.72;;;23.30;42.70;;;;;;5030870;28;20458;-56
2021/05/03 08:34:23;;;;;;;6.43;4.80;;;23.40;42.80;;;;;;5032761;28;20443;-56
2021/05/03 08:36:50;;;;;;;7.72;5.13;;;23.40;42.90;;;;;;5032422;28;20049;-57
2021/05/03 08:39:16;;;;;;;8.60;4.75;;;23.40;42.90;;;;;;5032465;28;20025;-56
2021/05/03 08:41:42;;;;;;;7.80;4.30;;;23.40;43.00;;;;;;5032245;28;20044;-57
2021/05/03 08:44:08;;;;;;;10.13;4.50;;;23.40;43.00;;;;;;5031783;28;20562;-57
2021/05/03 08:46:39;;;;;;;7.88;4.47;;;23.50;43.10;;;;;;5031358;28;20121;-57
2021/05/03 08:52:44;;;;;;;13.25;4.65;;;23.50;43.20;;;;;;5012247;28;20061;-56
2021/05/03 08:57:07;;;;;;;6.93;4.15;;;23.50;43.30;;;;;;5011565;28;20037;-56
2021/05/03 08:59:35;;;;;;;;;;;23.50;43.40;;;;;;5010623;28;20112;-58
2021/05/03 09:02:06;;;;;;;6.63;4.00;;;23.40;43.40;;;;;;5010283;28;20067;-57
2021/05/03 09:04:33;;;;;;;7.78;4.47;;;23.50;43.30;;;;;;5011349;28;20038;-56
2021/05/03 09:07:19;;;;;;;7.55;4.30;;;23.50;43.30;;;;;;5011406;28;20143;-56
2021/05/03 09:09:52;;;;;;;9.95;4.13;;;23.50;43.50;;;;;;5011054;28;20048;-56
2021/05/03 09:12:22;;;;;;;8.38;3.75;;;23.50;43.50;;;;;;5011787;28;20029;-56
2021/05/03 09:14:56;;;;;;;;;;;23.50;43.60;;;;;;5012476;28;20432;-56
2021/05/03 09:17:27;;;;;;;6.60;3.25;;;23.50;43.80;;;;;;5011412;28;19960;-56
2021/05/03 09:19:55;;;;;;;9.65;4.50;;;23.70;44.00;;;;;;5011716;28;20037;-56
2021/05/03 09:22:25;;;;;;;8.40;3.80;;;23.60;44.00;;;;;;5027946;28;20420;-55
2021/05/03 09:24:51;;;;;;;10.50;3.80;;;23.60;43.90;;;;;;5030939;28;20072;-56
2021/05/03 09:27:20;;;;;;;7.70;3.80;;;23.70;44.60;;;;;;5031030;28;20029;-56
2021/05/03 09:29:48;;;;;;;10.13;3.83;;;23.60;44.70;;;;;;5030948;28;20107;-56
2021/05/03 09:32:21;;;;;;;8.07;3.72;;;23.70;44.90;;;;;;5031556;28;20037;-56
2021/05/03 09:34:48;;;;;;;11.18;4.10;;;23.70;45.10;;;;;;5031305;28;20053;-56
2021/05/03 09:37:32;;;;;;;10.38;3.95;;;23.70;45.10;;;;;;5031435;28;20029;-56
2021/05/03 09:40:18;;;;;;;9.40;4.60;;;23.70;45.20;;;;;;5013409;28;20040;-56
2021/05/03 09:42:46;;;;;;;11.65;3.88;;;23.80;45.60;;;;;;5031470;28;20136;-57
2021/05/03 09:45:14;;;;;;;10.30;3.90;;;23.70;45.30;;;;;;5031400;28;20463;-57
2021/05/03 09:47:41;;;;;;;13.43;4.50;;;23.90;45.50;;;;;;5031261;28;20109;-57
2021/05/03 09:50:11;;;;;;;12.35;3.53;;;23.90;45.30;;;;;;5031063;28;20106;-57
2021/05/03 09:52:37;;;;;;;8.90;3.33;;;23.90;45.40;;;;;;5030896;28;20030;-57
2021/05/03 09:55:24;;;;;;;10.60;3.20;;;23.90;45.30;;;;;;5030943;28;20045;-58
2021/05/03 09:58:22;;;;;;;5.35;3.33;;;23.90;45.30;;;;;;5030686;28;20040;-56
2021/05/03 10:00:50;;;;;;;8.60;3.10;;;24.00;45.40;;;;;;5030600;28;20033;-56
2021/05/03 10:03:35;;;;;;;7.28;3.20;;;24.00;45.40;;;;;;5030533;28;20024;-55
2021/05/03 10:06:03;;;;;;;8.57;3.70;;;24.10;45.50;;;;;;5030732;28;20518;-56
2021/05/03 10:08:29;;;;;;;7.97;3.17;;;24.10;45.40;;;;;;5029191;28;20025;-56
2021/05/03 10:10:59;;;;;;;10.57;3.80;;;24.20;45.40;;;;;;5030817;28;20041;-55
2021/05/03 10:13:26;;;;;;;9.45;2.88;;;24.10;45.30;;;;;;5030543;28;20052;-55
2021/05/03 10:15:55;;;;;;;12.07;3.13;;;24.30;45.30;;;;;;5030226;28;20032;-56
2021/05/03 10:18:22;;;;;;;9.95;3.40;;;24.30;45.30;;;;;;5030597;28;20029;-56
2021/05/03 10:20:49;;;;;;;10.38;3.30;;;24.30;45.30;;;;;;5030613;28;20112;-56
2021/05/03 10:23:19;;;;;;;7.15;2.80;;;24.40;45.20;;;;;;5030584;28;20109;-56
2021/05/03 10:25:46;;;;;;;10.95;3.65;;;24.40;45.20;;;;;;5030625;28;20037;-56
2021/05/03 10:28:12;;;;;;;12.38;3.40;;;24.50;45.10;;;;;;5031236;28;20033;-57
2021/05/03 10:30:44;;;;;;;10.55;3.33;;;24.50;45.00;;;;;;5034108;28;20144;-54
2021/05/03 10:33:13;;;;;;;6.85;2.80;;;24.50;45.20;;;;;;5033998;28;20026;-57
2021/05/03 10:35:40;;;;;;;11.00;3.58;;;24.50;45.10;;;;;;5032403;28;20356;-56
2021/05/03 10:38:30;;;;;;;10.90;3.60;;;24.50;45.10;;;;;;5016111;28;20345;-55
2021/05/03 10:40:59;;;;;;;7.35;3.22;;;24.50;45.10;;;;;;5014315;28;20080;-56
2021/05/03 10:43:34;;;;;;;10.65;3.42;;;24.60;45.30;;;;;;5029010;28;20061;-59
2021/05/03 10:46:51;;;;;;;11.63;4.18;;;24.60;45.30;;;;;;5014146;28;20048;-59
2021/05/03 10:49:26;;;;;;;6.40;3.15;;;24.70;45.30;;;;;;5012608;28;20084;-59
2021/05/03 10:51:56;;;;;;;11.88;3.30;;;24.70;45.10;;;;;;5012136;28;20132;-58
2021/05/03 10:54:31;;;;;;;9.73;3.22;;;24.80;45.00;;;;;;5013438;28;20091;-57
2021/05/03 10:57:00;;;;;;;6.15;3.00;;;24.80;45.00;;;;;;5014262;28;20113;-57
2021/05/03 10:59:26;;;;;;;12.18;3.30;;;24.90;44.90;;;;;;5014090;28;20412;-57
2021/05/03 11:01:52;;;;;;;15.30;4.97;;;24.90;44.70;;;;;;5013749;28;20041;-58
2021/05/03 11:04:22;;;;;;;7.80;3.28;;;24.90;44.60;;;;;;5013736;28;20041;-57
2021/05/03 11:06:48;;;;;;;11.32;3.92;;;25.00;44.70;;;;;;5014034;28;20133;-58
2021/05/03 11:09:30;;;;;;;5.68;2.83;;;25.00;44.60;;;;;;5013639;28;20038;-57
2021/05/03 11:12:01;;;;;;;8.20;3.13;;;25.00;44.50;;;;;;5028689;28;20061;-57
2021/05/03 11:14:31;;;;;;;11.60;3.17;;;25.10;44.20;;;;;;5013345;28;20037;-57
2021/05/03 11:17:08;;;;;;;9.20;3.13;;;25.10;44.10;;;;;;5013600;28;20025;-57
2021/05/03 11:23:11;;;;;;;6.82;3.03;;;25.00;44.20;;;;;;5012644;28;20112;-57
2021/05/03 11:25:37;;;;;;;10.07;3.08;;;25.00;44.20;;;;;;5012279;28;20038;-56
2021/05/03 11:33:15;;;;;;;7.75;3.25;;;25.00;44.40;;;;;;5012531;28;20029;-57
2021/05/03 11:35:53;;;;;;;8.25;2.78;;;24.90;44.30;;;;;;5012959;28;20071;-57
2021/05/03 11:38:33;;;;;;;10.70;3.72;;;25.00;44.40;;;;;;5028080;28;20340;-57
2021/05/03 11:46:30;;;;;;;8.88;3.42;;;25.10;44.40;;;;;;5027431;28;20389;-56
2021/05/03 11:48:59;;;;;;;10.00;3.25;;;25.10;44.30;;;;;;5012094;28;20033;-56
2021/05/03 11:51:26;;;;;;;8.98;3.83;;;25.20;44.40;;;;;;5012045;28;20121;-56
2021/05/03 11:53:53;;;;;;;10.43;3.70;;;25.20;44.40;;;;;;5012129;28;20022;-56
2021/05/03 11:56:30;;;;;;;9.15;2.88;;;25.20;44.40;;;;;;5011866;28;20018;-56
2021/05/03 11:59:00;;;;;;;8.65;3.00;;;25.30;44.40;;;;;;5011981;28;20033;-56
2021/05/03 12:01:30;;;;;;;;;;;25.30;44.40;;;;;;5012694;28;20053;-57
2021/05/03 12:03:58;;;;;;;5.47;2.35;;;25.30;44.50;;;;;;5012275;28;20328;-56
2021/05/03 12:06:41;;;;;;;11.80;2.72;;;25.40;44.40;;;;;;5011916;28;20022;-56
2021/05/03 12:09:14;;;;;;;8.18;2.90;;;25.30;44.30;;;;;;5012135;28;20034;-56
2021/05/03 12:11:58;;;;;;;4.45;2.90;;;25.30;44.40;;;;;;5011452;28;20034;-57
2021/05/03 12:14:45;;;;;;;7.80;3.22;;;25.30;44.50;;;;;;5027386;28;20108;-56
2021/05/03 12:17:23;;;;;;;7.15;2.85;;;25.40;44.60;;;;;;5012534;28;20125;-56
2021/05/03 12:19:54;;;;;;;8.65;3.55;;;25.40;44.60;;;;;;5012305;28;20044;-56
2021/05/03 12:22:21;;;;;;;13.93;3.58;;;25.50;44.60;;;;;;5011247;28;20796;-56
2021/05/03 12:24:48;;;;;;;7.93;2.90;;;25.50;44.60;;;;;;5029916;28;20785;-56
2021/05/03 12:27:15;;;;;;;9.82;3.30;;;25.60;44.60;;;;;;5031757;28;20033;-57
2021/05/03 12:29:47;;;;;;;9.35;4.13;;;25.60;44.60;;;;;;5031701;28;20048;-56
2021/05/03 12:32:19;;;;;;;8.00;2.63;;;25.60;44.50;;;;;;5031205;28;20501;-56
2021/05/03 12:34:49;;;;;;;6.88;3.13;;;25.70;44.60;;;;;;5030017;28;20033;-56
2021/05/03 12:37:17;;;;;;;8.02;3.83;;;25.70;44.50;;;;;;5031333;28;20494;-56
2021/05/03 12:40:00;;;;;;;7.13;2.88;;;25.80;44.50;;;;;;5031093;28;20025;-58
2021/05/03 12:42:47;;;;;;;5.32;3.03;;;25.80;44.50;;;;;;5031261;28;20454;-57
2021/05/03 12:45:45;;;;;;;6.13;2.97;;;25.90;44.50;;;;;;5031162;28;20032;-57
2021/05/03 12:56:59;;;;;;;8.32;3.25;;;26.00;44.20;;;;;;5030787;28;20092;-56
2021/05/03 13:00:08;;;;;;;6.55;2.90;;;25.90;43.90;;;;;;5031021;28;20029;-56
2021/05/03 13:05:07;;;;;;;4.10;2.42;;;25.90;44.10;;;;;;5030581;28;20080;-56
2021/05/03 13:29:06;;;;;;;6.40;2.97;;;26.10;44.40;;;;;;5030584;28;20033;-57
2021/05/03 13:31:33;;;;;;;5.20;2.45;;;26.10;44.40;;;;;;5030326;28;20037;-57
2021/05/03 13:34:01;;;;;;;5.45;2.20;;;26.10;44.20;;;;;;5029246;28;20063;-56
2021/05/03 13:36:28;;;;;;;7.78;2.85;;;26.00;44.20;;;;;;5029917;28;20494;-57
2021/05/03 13:38:55;;;;;;;6.68;2.78;;;26.00;44.10;;;;;;5030356;28;20074;-57
2021/05/03 13:41:22;;;;;;;6.13;2.90;;;26.00;44.30;;;;;;5029425;28;20440;-57
2021/05/03 13:43:49;;;;;;;8.57;2.55;;;26.00;44.30;;;;;;5029205;28;20036;-57
2021/05/03 13:46:15;;;;;;;8.10;2.78;;;25.90;44.20;;;;;;5028924;28;20040;-57
2021/05/03 13:48:41;;;;;;;7.13;3.50;;;26.00;44.30;;;;;;5028230;28;20065;-57
2021/05/03 13:51:08;;;;;;;7.10;3.47;;;25.90;44.20;;;;;;5027509;28;20033;-58
2021/05/03 13:53:37;;;;;;;12.88;5.28;;;25.90;44.10;;;;;;5028977;28;20033;-57
2021/05/03 13:56:04;;;;;;;13.18;7.22;;;25.80;44.20;;;;;;5028167;28;20108;-57
2021/05/03 13:58:31;;;;;;;18.17;16.17;;;25.80;44.30;;;;;;5029349;28;20023;-57
2021/05/03 14:00:57;;;;;;;21.02;12.75;;;25.80;44.10;;;;;;5029071;28;20065;-57